Time;durP1;ratioP1;P1;durP2;ratioP2;P2;SDS_P1;SDS_P2;PMS_P1;PMS_P2;Temp;Humidity;BMP_temperature;BMP_pressure;BME280_temperature;BME280_humidity;BME280_pressure;Samples;Min_cycle;Max_cycle;Signal;HPM_P1;HPM_P2
2021/01/19 00:00:30;;;;;;;24.52;22.08;;;24.50;55.50;;;;;;4964063;28;20629;-53
2021/01/19 00:03:00;;;;;;;24.85;22.35;;;24.50;55.50;;;;;;4962175;28;20247;-48
2021/01/19 00:05:30;;;;;;;24.35;22.05;;;24.50;55.60;;;;;;4960550;28;20233;-48
2021/01/19 00:08:01;;;;;;;26.38;23.63;;;24.50;55.60;;;;;;4959888;28;20232;-48
2021/01/19 00:10:32;;;;;;;27.42;24.80;;;24.50;55.60;;;;;;4961476;28;20225;-52
2021/01/19 00:13:03;;;;;;;27.35;24.63;;;24.50;55.60;;;;;;4962922;28;20240;-52
2021/01/19 00:15:34;;;;;;;27.70;24.95;;;24.40;55.70;;;;;;4962700;28;20233;-51
2021/01/19 00:18:05;;;;;;;26.25;23.60;;;24.40;55.70;;;;;;4966834;28;20263;-51
2021/01/19 00:20:35;;;;;;;26.70;24.17;;;24.40;55.80;;;;;;4963942;28;20242;-49
2021/01/19 00:23:06;;;;;;;26.35;23.55;;;24.40;55.90;;;;;;4960961;28;20232;-52
2021/01/19 00:25:38;;;;;;;26.83;23.95;;;24.40;56.10;;;;;;4964993;28;20237;-51
2021/01/19 00:28:10;;;;;;;24.02;21.52;;;24.40;56.20;;;;;;4965034;28;20320;-52
2021/01/19 00:30:40;;;;;;;25.38;22.70;;;24.40;56.30;;;;;;4963803;28;20727;-51
2021/01/19 00:33:11;;;;;;;27.70;24.52;;;24.50;56.40;;;;;;4961564;28;20283;-50
2021/01/19 00:35:42;;;;;;;32.22;25.48;;;24.50;56.50;;;;;;4951340;28;20241;-48
2021/01/19 00:38:13;;;;;;;28.80;25.77;;;24.50;56.50;;;;;;4967776;28;20229;-50
2021/01/19 00:40:44;;;;;;;27.88;24.95;;;24.50;56.30;;;;;;4965133;28;20750;-50
2021/01/19 00:43:15;;;;;;;28.67;25.05;;;24.60;56.50;;;;;;4964951;28;20224;-50
2021/01/19 00:45:46;;;;;;;28.33;25.33;;;24.60;56.40;;;;;;4967682;28;20335;-48
2021/01/19 00:48:16;;;;;;;29.02;23.98;;;24.60;56.20;;;;;;4964213;28;20226;-49
2021/01/19 00:50:47;;;;;;;25.77;23.02;;;24.60;56.10;;;;;;4961686;28;20229;-50
2021/01/19 00:53:18;;;;;;;24.27;21.73;;;24.70;56.00;;;;;;4962564;28;20323;-50
2021/01/19 00:55:48;;;;;;;24.27;21.98;;;24.70;56.00;;;;;;4963913;28;20683;-53
2021/01/19 00:58:20;;;;;;;24.73;22.15;;;24.70;55.90;;;;;;4965860;28;20244;-49
2021/01/19 01:00:50;;;;;;;26.63;24.13;;;24.80;56.00;;;;;;4963737;28;20241;-52
2021/01/19 01:03:21;;;;;;;25.58;23.08;;;24.80;55.80;;;;;;4961701;28;20701;-48
2021/01/19 01:05:51;;;;;;;24.02;21.55;;;24.90;55.80;;;;;;4959608;28;20332;-50
2021/01/19 01:08:22;;;;;;;24.27;21.98;;;24.90;55.70;;;;;;4960893;28;20641;-50
2021/01/19 01:10:52;;;;;;;23.05;20.70;;;24.90;55.80;;;;;;4965382;28;20225;-50
2021/01/19 01:13:24;;;;;;;23.92;21.63;;;25.00;55.70;;;;;;4965865;28;20233;-50
2021/01/19 01:15:54;;;;;;;24.02;21.63;;;25.00;55.50;;;;;;4966193;28;20286;-51
2021/01/19 01:18:26;;;;;;;21.77;19.67;;;25.00;55.40;;;;;;4967531;28;20233;-49
2021/01/19 01:20:57;;;;;;;24.38;21.92;;;25.10;55.60;;;;;;4968238;28;20331;-48
2021/01/19 01:23:28;;;;;;;24.48;21.98;;;25.10;55.50;;;;;;4960574;28;20240;-51
2021/01/19 01:25:59;;;;;;;24.77;22.05;;;25.20;55.40;;;;;;4963551;28;20312;-50
2021/01/19 01:28:30;;;;;;;23.60;21.25;;;25.20;55.20;;;;;;4961000;28;20256;-51
2021/01/19 01:31:00;;;;;;;24.00;21.65;;;25.30;55.30;;;;;;4962992;28;20298;-52
2021/01/19 01:33:32;;;;;;;26.85;24.15;;;25.30;55.40;;;;;;4961403;28;20240;-53
2021/01/19 01:36:02;;;;;;;25.10;22.70;;;25.30;55.10;;;;;;4969567;28;20232;-53
2021/01/19 01:38:32;;;;;;;23.98;21.63;;;25.40;55.00;;;;;;5005240;28;20323;-48
2021/01/19 01:41:03;;;;;;;23.13;20.85;;;25.40;54.90;;;;;;4968017;28;20241;-49
2021/01/19 01:43:35;;;;;;;25.38;22.65;;;25.50;55.00;;;;;;4961975;28;20705;-48
2021/01/19 01:46:05;;;;;;;25.20;22.63;;;25.50;54.80;;;;;;4969236;28;20252;-51
2021/01/19 01:48:36;;;;;;;23.90;21.50;;;25.60;54.70;;;;;;4959792;28;20259;-49
2021/01/19 01:51:07;;;;;;;25.80;23.30;;;25.60;54.70;;;;;;4967509;28;20316;-50
2021/01/19 01:53:38;;;;;;;24.92;22.38;;;25.60;54.50;;;;;;4964319;28;20237;-48
2021/01/19 01:56:09;;;;;;;24.42;22.00;;;25.70;54.60;;;;;;4963593;28;20240;-50
2021/01/19 01:58:40;;;;;;;25.08;22.60;;;25.80;54.70;;;;;;4968819;28;20225;-51
2021/01/19 02:01:11;;;;;;;23.05;20.85;;;25.80;54.50;;;;;;4967748;28;20669;-49
2021/01/19 02:03:41;;;;;;;24.67;21.95;;;25.90;54.60;;;;;;4988408;28;20634;-52
2021/01/19 02:06:13;;;;;;;25.60;22.90;;;25.90;54.50;;;;;;4966472;28;20238;-48
2021/01/19 02:08:48;;;;;;;23.63;21.27;;;26.00;54.10;;;;;;4941171;28;20227;-48
2021/01/19 02:11:29;;;;;;;22.45;20.35;;;26.10;54.30;;;;;;4870758;28;20243;-50
2021/01/19 02:14:22;;;;;;;23.33;20.92;;;26.10;54.30;;;;;;4870465;28;20283;-51
2021/01/19 02:17:13;;;;;;;22.27;20.10;;;26.20;54.00;;;;;;4872141;28;20688;-52
2021/01/19 02:20:12;;;;;;;23.98;21.48;;;26.30;54.00;;;;;;4880356;28;20236;-52
2021/01/19 02:23:06;;;;;;;23.55;21.05;;;26.30;54.00;;;;;;4913368;29;20622;-51
2021/01/19 02:25:55;;;;;;;23.73;21.30;;;26.40;53.60;;;;;;4838270;29;20240;-50
2021/01/19 02:28:28;;;;;;;24.85;22.25;;;26.60;53.40;;;;;;4759294;29;20716;-54
2021/01/19 02:31:13;;;;;;;24.55;22.20;;;26.60;53.60;;;;;;4768490;29;20315;-52
2021/01/19 02:33:55;;;;;;;25.90;23.20;;;26.70;53.20;;;;;;4769849;29;20250;-50
2021/01/19 02:36:31;;;;;;;23.27;21.10;;;26.70;53.00;;;;;;4763965;29;20254;-53
2021/01/19 02:39:02;;;;;;;23.92;21.00;;;26.80;52.90;;;;;;4818816;29;20302;-50
2021/01/19 02:41:33;;;;;;;22.15;19.77;;;26.90;53.00;;;;;;4829789;29;20331;-51
2021/01/19 02:44:20;;;;;;;23.80;21.50;;;26.90;52.90;;;;;;4858981;29;20245;-50
2021/01/19 02:46:53;;;;;;;24.38;21.92;;;27.00;52.50;;;;;;4887494;29;20753;-49
2021/01/19 02:49:25;;;;;;;23.60;21.08;;;27.10;52.20;;;;;;4908562;28;20239;-51
2021/01/19 02:51:55;;;;;;;23.73;21.20;;;27.20;52.30;;;;;;4872750;28;20255;-49
2021/01/19 02:54:26;;;;;;;21.38;19.25;;;27.20;52.30;;;;;;4869234;28;20233;-52
2021/01/19 02:57:06;;;;;;;22.50;20.42;;;27.30;52.50;;;;;;4867701;28;20239;-50
2021/01/19 02:59:39;;;;;;;23.05;20.63;;;27.40;52.00;;;;;;4883859;28;20294;-49
2021/01/19 03:02:12;;;;;;;22.52;20.23;;;27.40;51.80;;;;;;4894320;28;20702;-50
2021/01/19 03:04:44;;;;;;;20.80;18.83;;;27.50;51.70;;;;;;4904432;28;20282;-49
2021/01/19 03:07:15;;;;;;;20.60;18.58;;;27.60;52.00;;;;;;4909851;28;20247;-51
2021/01/19 03:09:48;;;;;;;24.08;21.67;;;27.60;52.00;;;;;;4971537;28;20247;-50
2021/01/19 03:12:19;;;;;;;21.13;19.13;;;27.70;51.60;;;;;;5003264;28;20258;-49
2021/01/19 03:14:49;;;;;;;21.70;19.67;;;27.80;51.50;;;;;;5020100;28;20710;-52
2021/01/19 03:17:19;;;;;;;23.00;20.80;;;27.90;51.30;;;;;;5032689;28;20363;-51
2021/01/19 03:19:51;;;;;;;21.48;19.38;;;28.00;51.20;;;;;;5036847;28;21203;-48
2021/01/19 03:22:22;;;;;;;21.77;19.83;;;28.00;51.00;;;;;;5041391;28;20234;-48
2021/01/19 03:24:52;;;;;;;20.17;18.13;;;28.10;51.10;;;;;;5042999;28;20964;-51
2021/01/19 03:27:23;;;;;;;21.38;19.40;;;28.20;51.10;;;;;;5043580;28;20609;-50
2021/01/19 03:29:53;;;;;;;22.13;20.02;;;28.20;50.40;;;;;;5042962;28;20233;-49
2021/01/19 03:32:24;;;;;;;23.83;21.50;;;28.30;50.40;;;;;;5044038;28;20245;-52
2021/01/19 03:34:56;;;;;;;22.15;19.95;;;28.40;50.20;;;;;;5014686;28;20260;-51
2021/01/19 03:37:26;;;;;;;21.40;19.25;;;28.50;51.10;;;;;;4969193;28;20225;-50
2021/01/19 03:39:56;;;;;;;21.55;19.35;;;28.60;50.30;;;;;;4960972;28;20233;-54
2021/01/19 03:42:28;;;;;;;23.58;21.25;;;28.60;50.30;;;;;;4961479;28;20236;-49
2021/01/19 03:44:59;;;;;;;21.60;19.42;;;28.70;49.80;;;;;;4993605;28;20315;-49
2021/01/19 03:47:29;;;;;;;24.55;22.05;;;28.80;50.00;;;;;;4965148;28;20232;-51
2021/01/19 03:50:02;;;;;;;22.55;20.02;;;28.90;49.60;;;;;;4959904;28;20682;-52
2021/01/19 03:52:32;;;;;;;23.48;20.95;;;28.90;49.50;;;;;;4960716;28;20243;-51
2021/01/19 03:55:03;;;;;;;23.95;21.48;;;29.00;49.70;;;;;;4958214;28;20308;-53
2021/01/19 03:57:33;;;;;;;26.25;23.60;;;29.10;49.30;;;;;;4961550;28;20236;-51
2021/01/19 04:00:04;;;;;;;23.05;20.55;;;29.10;49.10;;;;;;4963878;28;20237;-51
2021/01/19 04:02:35;;;;;;;22.42;20.20;;;29.20;49.00;;;;;;4961649;28;20246;-50
2021/01/19 04:05:07;;;;;;;22.40;20.20;;;29.20;49.00;;;;;;4964327;28;20252;-51
2021/01/19 04:07:40;;;;;;;23.45;21.17;;;29.30;48.70;;;;;;4963257;28;20237;-50
2021/01/19 04:10:12;;;;;;;21.73;19.63;;;29.30;48.50;;;;;;5008756;28;20259;-49
2021/01/19 04:12:42;;;;;;;22.13;20.13;;;29.40;48.80;;;;;;4969098;28;20758;-48
2021/01/19 04:15:13;;;;;;;23.92;21.42;;;29.40;49.00;;;;;;4963730;28;20232;-49
2021/01/19 04:17:44;;;;;;;23.52;21.33;;;29.50;48.70;;;;;;4985977;28;20243;-50
2021/01/19 04:20:16;;;;;;;23.70;21.27;;;29.60;48.50;;;;;;4963176;28;20239;-51
2021/01/19 04:22:46;;;;;;;22.58;20.42;;;29.60;48.50;;;;;;4972603;28;20696;-49
2021/01/19 04:25:16;;;;;;;24.33;22.02;;;29.70;48.60;;;;;;4968678;28;20856;-50
2021/01/19 04:27:46;;;;;;;25.08;22.50;;;29.80;48.40;;;;;;4967892;28;20744;-51
2021/01/19 04:30:18;;;;;;;24.52;22.05;;;29.90;47.90;;;;;;4997717;28;20226;-51
2021/01/19 04:32:48;;;;;;;26.40;23.85;;;29.90;47.80;;;;;;4926538;28;20253;-49
2021/01/19 04:35:20;;;;;;;23.83;21.70;;;30.00;47.60;;;;;;4926662;28;20242;-51
2021/01/19 04:37:50;;;;;;;23.10;20.77;;;30.10;47.90;;;;;;4928451;28;20313;-52
2021/01/19 04:40:21;;;;;;;25.73;23.33;;;30.10;47.90;;;;;;4927876;29;20296;-48
2021/01/19 04:42:52;;;;;;;25.60;23.10;;;30.10;47.60;;;;;;4887869;28;20255;-52
2021/01/19 04:45:23;;;;;;;26.77;24.08;;;30.20;47.30;;;;;;4889499;28;20247;-54
2021/01/19 04:47:54;;;;;;;25.25;22.98;;;30.30;47.10;;;;;;4892553;28;20313;-55
2021/01/19 04:50:26;;;;;;;26.02;23.45;;;30.30;47.00;;;;;;4906366;28;20235;-51
2021/01/19 04:52:56;;;;;;;27.50;24.58;;;30.30;46.80;;;;;;4924677;28;20271;-50
2021/01/19 04:55:28;;;;;;;24.17;21.77;;;30.40;46.70;;;;;;4929815;29;20308;-51
2021/01/19 04:57:59;;;;;;;24.27;21.98;;;30.40;46.90;;;;;;4928489;29;20313;-53
2021/01/19 05:00:30;;;;;;;25.88;23.15;;;30.40;46.80;;;;;;4930366;29;20656;-53
2021/01/19 05:03:30;;;;;;;23.75;21.42;;;30.50;46.60;;;;;;4927295;29;20421;-51
2021/01/19 05:06:03;;;;;;;24.45;22.10;;;30.60;46.60;;;;;;4921420;29;20357;-51
2021/01/19 05:09:00;;;;;;;26.58;23.83;;;30.60;46.20;;;;;;4890834;29;20242;-52
2021/01/19 05:11:31;;;;;;;23.73;21.58;;;30.60;45.90;;;;;;4893113;29;20680;-49
2021/01/19 05:14:02;;;;;;;23.65;21.13;;;30.60;46.20;;;;;;4903432;29;20226;-52
2021/01/19 05:16:34;;;;;;;23.75;21.52;;;30.70;46.30;;;;;;4884716;29;20715;-50
2021/01/19 05:19:05;;;;;;;22.63;20.52;;;30.70;46.10;;;;;;4855237;29;20243;-50
2021/01/19 05:21:38;;;;;;;23.48;21.33;;;30.70;46.00;;;;;;4870326;28;20236;-51
2021/01/19 05:24:09;;;;;;;22.58;20.30;;;30.80;46.00;;;;;;4879460;28;20628;-51
2021/01/19 05:26:41;;;;;;;26.63;23.88;;;30.90;46.20;;;;;;4904581;28;20264;-53
2021/01/19 05:29:12;;;;;;;24.80;22.35;;;30.90;45.70;;;;;;4876710;28;20283;-51
2021/01/19 05:31:42;;;;;;;24.58;22.17;;;31.00;45.80;;;;;;4927362;29;20341;-53
2021/01/19 05:34:13;;;;;;;24.10;21.88;;;31.00;45.70;;;;;;4926999;28;20256;-49
2021/01/19 05:36:46;;;;;;;20.27;18.30;;;31.10;45.30;;;;;;4909026;28;20687;-51
2021/01/19 05:39:18;;;;;;;26.77;24.10;;;31.10;45.50;;;;;;4933712;28;20236;-50
2021/01/19 05:41:49;;;;;;;26.38;23.75;;;31.10;46.20;;;;;;5006681;28;20291;-49
2021/01/19 05:44:23;;;;;;;29.33;26.58;;;31.10;47.00;;;;;;4986375;28;20244;-50
2021/01/19 05:47:02;;;;;;;27.92;25.25;;;31.20;47.80;;;;;;4955531;28;20233;-48
2021/01/19 05:49:34;;;;;;;26.73;24.10;;;31.10;47.30;;;;;;4994177;28;20236;-51
2021/01/19 05:52:06;;;;;;;26.30;23.90;;;31.10;47.60;;;;;;5007416;28;20226;-51
2021/01/19 05:54:37;;;;;;;28.42;25.60;;;31.10;47.90;;;;;;4962324;28;20264;-52
2021/01/19 05:57:09;;;;;;;28.42;25.63;;;31.10;48.10;;;;;;4972121;28;20229;-49
2021/01/19 05:59:41;;;;;;;30.60;27.50;;;31.10;49.00;;;;;;5024853;28;20228;-52
2021/01/19 06:02:12;;;;;;;31.08;27.95;;;31.10;48.40;;;;;;4963275;28;20241;-50
2021/01/19 06:04:44;;;;;;;28.23;25.42;;;31.10;49.00;;;;;;4971401;28;20702;-51
2021/01/19 06:07:16;;;;;;;28.70;25.75;;;31.10;49.30;;;;;;4961696;28;20237;-55
2021/01/19 06:09:46;;;;;;;30.55;27.65;;;31.00;49.40;;;;;;4965380;28;20236;-50
2021/01/19 06:12:17;;;;;;;29.58;26.65;;;31.00;49.90;;;;;;4969483;28;20647;-52
2021/01/19 06:14:50;;;;;;;30.77;27.90;;;31.00;49.90;;;;;;4967854;28;20234;-49
2021/01/19 06:17:21;;;;;;;30.98;27.77;;;31.00;49.70;;;;;;4970488;28;20937;-53
2021/01/19 06:19:53;;;;;;;27.52;24.92;;;31.00;49.90;;;;;;4968436;28;20311;-49
2021/01/19 06:22:25;;;;;;;26.45;23.95;;;31.00;49.80;;;;;;4969786;28;20641;-49
2021/01/19 06:24:55;;;;;;;30.55;27.45;;;31.10;50.00;;;;;;4967169;28;20260;-49
2021/01/19 06:27:30;;;;;;;28.20;25.33;;;31.00;50.30;;;;;;4965195;28;20240;-50
2021/01/19 06:30:11;;;;;;;29.92;27.10;;;31.10;50.10;;;;;;4963388;28;20252;-52
2021/01/19 06:32:47;;;;;;;28.58;25.88;;;31.10;50.30;;;;;;4965170;28;20236;-52
2021/01/19 06:35:18;;;;;;;27.77;25.13;;;31.10;49.80;;;;;;4969021;28;20270;-49
2021/01/19 06:37:50;;;;;;;26.95;24.35;;;31.00;49.50;;;;;;4968785;28;20228;-53
2021/01/19 06:40:21;;;;;;;28.17;25.50;;;31.00;49.50;;;;;;4967407;28;20314;-50
2021/01/19 06:42:58;;;;;;;29.85;26.60;;;31.00;49.50;;;;;;4967258;28;20643;-50
2021/01/19 06:45:30;;;;;;;29.10;26.33;;;31.00;49.30;;;;;;4965190;28;20239;-49
2021/01/19 06:48:01;;;;;;;29.23;26.52;;;30.90;49.50;;;;;;4968033;28;20241;-53
2021/01/19 06:50:34;;;;;;;33.35;30.08;;;30.90;49.40;;;;;;4970240;28;20224;-50
2021/01/19 06:53:16;;;;;;;32.15;28.55;;;30.90;49.90;;;;;;4952876;28;20656;-51
2021/01/19 06:55:57;;;;;;;30.98;27.75;;;30.80;49.50;;;;;;4964864;28;20251;-49
2021/01/19 06:58:50;;;;;;;30.83;27.70;;;30.80;49.60;;;;;;4967675;28;20317;-51
2021/01/19 07:01:20;;;;;;;28.95;25.90;;;30.80;50.10;;;;;;4997329;28;20775;-51
2021/01/19 07:04:03;;;;;;;26.23;23.83;;;30.90;49.60;;;;;;4967772;28;21179;-48
2021/01/19 07:07:01;;;;;;;28.83;25.90;;;30.80;49.40;;;;;;4964677;28;20239;-53
2021/01/19 07:09:55;;;;;;;34.00;30.27;;;30.90;49.60;;;;;;4966483;28;20312;-50
2021/01/19 07:12:25;;;;;;;33.40;29.67;;;30.90;48.80;;;;;;4922844;28;20235;-52
2021/01/19 07:15:16;;;;;;;33.35;29.95;;;30.90;48.90;;;;;;4944852;29;20773;-50
2021/01/19 07:18:15;;;;;;;31.98;28.92;;;30.90;49.50;;;;;;4940063;29;20724;-54
2021/01/19 07:21:04;;;;;;;26.70;23.88;;;30.80;49.50;;;;;;4941795;29;20353;-49
2021/01/19 07:24:01;;;;;;;34.42;30.90;;;30.80;49.90;;;;;;4911218;29;20245;-52
2021/01/19 07:26:36;;;;;;;32.25;29.13;;;30.80;50.30;;;;;;4840603;29;20317;-52
2021/01/19 07:29:07;;;;;;;29.50;26.70;;;30.80;50.00;;;;;;4855800;29;20863;-50
2021/01/19 07:31:38;;;;;;;29.98;26.90;;;30.70;50.20;;;;;;4857861;29;20260;-53
2021/01/19 07:34:08;;;;;;;31.33;28.42;;;30.70;50.00;;;;;;4856115;29;20232;-54
2021/01/19 07:36:39;;;;;;;29.20;26.50;;;30.70;49.70;;;;;;4795736;29;20752;-53
2021/01/19 07:39:20;;;;;;;28.50;25.48;;;30.70;49.60;;;;;;4839790;29;20273;-51
2021/01/19 07:41:52;;;;;;;36.90;33.05;;;30.70;49.90;;;;;;4871186;29;20711;-55
2021/01/19 07:44:23;;;;;;;26.58;23.92;;;30.70;50.40;;;;;;4873697;29;20736;-52
2021/01/19 07:47:16;;;;;;;29.27;26.42;;;30.80;50.40;;;;;;4914267;29;20252;-49
2021/01/19 07:49:46;;;;;;;28.60;25.92;;;30.80;50.10;;;;;;4948595;29;20421;-52
2021/01/19 07:52:17;;;;;;;30.75;27.58;;;30.80;49.30;;;;;;4950629;28;20229;-49
2021/01/19 07:54:47;;;;;;;29.52;26.52;;;30.90;49.80;;;;;;4947049;28;20713;-52
2021/01/19 07:57:19;;;;;;;26.02;23.38;;;30.90;49.90;;;;;;4970498;28;20233;-51
2021/01/19 07:59:50;;;;;;;27.83;25.33;;;31.00;50.10;;;;;;4988356;28;20297;-48
2021/01/19 08:02:24;;;;;;;27.92;25.10;;;31.00;49.00;;;;;;5022745;28;20652;-49
2021/01/19 08:05:01;;;;;;;28.55;24.80;;;31.10;48.70;;;;;;5026291;28;20322;-48
2021/01/19 08:07:39;;;;;;;29.85;27.05;;;31.10;48.50;;;;;;4996199;28;20331;-51
2021/01/19 08:10:20;;;;;;;27.50;24.80;;;31.10;48.10;;;;;;4963097;28;20243;-50
2021/01/19 08:12:53;;;;;;;27.02;24.42;;;31.10;48.40;;;;;;4967845;28;20355;-52
2021/01/19 08:15:26;;;;;;;28.48;25.60;;;31.10;48.10;;;;;;4968653;28;20574;-52
2021/01/19 08:17:58;;;;;;;28.08;25.13;;;31.10;47.90;;;;;;4966976;28;20646;-48
2021/01/19 08:20:31;;;;;;;25.85;23.35;;;31.10;48.00;;;;;;4968355;28;20240;-49
2021/01/19 08:23:13;;;;;;;31.13;28.08;;;31.20;49.00;;;;;;4962152;28;20229;-49
2021/01/19 08:25:43;;;;;;;26.13;23.58;;;31.20;48.50;;;;;;4968776;28;20270;-51
2021/01/19 08:28:15;;;;;;;26.25;23.58;;;31.20;48.50;;;;;;4968391;28;20708;-50
2021/01/19 08:30:47;;;;;;;28.52;25.60;;;31.20;49.00;;;;;;4967820;28;20281;-51
2021/01/19 08:33:18;;;;;;;25.98;23.63;;;31.30;49.30;;;;;;4977019;28;21114;-50
2021/01/19 08:35:51;;;;;;;25.90;23.40;;;31.30;49.40;;;;;;4969226;28;20236;-50
2021/01/19 08:38:23;;;;;;;31.80;28.25;;;31.40;49.60;;;;;;4966939;28;20236;-49
2021/01/19 08:40:54;;;;;;;26.70;23.90;;;31.40;49.10;;;;;;4964649;28;20310;-51
2021/01/19 08:43:26;;;;;;;29.02;26.25;;;31.50;49.30;;;;;;4966829;28;20229;-51
2021/01/19 08:46:00;;;;;;;26.73;24.23;;;31.50;49.40;;;;;;4960243;28;20264;-53
2021/01/19 08:48:31;;;;;;;27.52;24.77;;;31.50;49.10;;;;;;4964424;28;20655;-50
2021/01/19 08:51:02;;;;;;;28.48;25.67;;;31.50;48.80;;;;;;4967430;28;20656;-50
2021/01/19 08:53:33;;;;;;;27.20;24.45;;;31.50;48.60;;;;;;4965023;28;20257;-50
2021/01/19 08:56:03;;;;;;;28.02;25.10;;;31.60;48.70;;;;;;4962594;28;20263;-48
2021/01/19 08:58:36;;;;;;;26.38;23.65;;;31.50;48.60;;;;;;4965477;28;20343;-49
2021/01/19 09:01:06;;;;;;;30.45;27.25;;;31.50;48.70;;;;;;4965901;28;20241;-50
2021/01/19 09:03:37;;;;;;;29.10;26.30;;;31.50;48.80;;;;;;4964238;28;20629;-50
2021/01/19 09:06:08;;;;;;;30.90;27.00;;;31.40;48.90;;;;;;4966718;28;20225;-49
2021/01/19 09:08:41;;;;;;;27.05;24.45;;;31.40;49.00;;;;;;4966918;28;20238;-48
2021/01/19 09:11:12;;;;;;;29.45;26.25;;;31.30;49.10;;;;;;4962014;28;20586;-51
2021/01/19 09:13:53;;;;;;;26.50;23.85;;;31.20;49.20;;;;;;4955777;28;20225;-52
2021/01/19 09:16:25;;;;;;;26.67;23.85;;;31.20;49.30;;;;;;4965419;28;20228;-51
2021/01/19 09:18:55;;;;;;;25.35;22.77;;;31.10;49.30;;;;;;4959048;28;20232;-50
2021/01/19 09:21:26;;;;;;;26.80;24.15;;;31.10;49.50;;;;;;4966319;28;20704;-49
2021/01/19 09:23:57;;;;;;;26.15;23.65;;;31.10;49.70;;;;;;4967008;28;20606;-52
2021/01/19 09:26:27;;;;;;;25.40;22.92;;;31.00;49.90;;;;;;4966526;28;20617;-49
2021/01/19 09:29:07;;;;;;;26.55;23.95;;;31.00;49.70;;;;;;4962544;28;20224;-52
2021/01/19 09:31:38;;;;;;;27.48;24.70;;;31.00;49.40;;;;;;4966041;28;20248;-51
2021/01/19 09:34:08;;;;;;;26.70;23.80;;;31.00;49.20;;;;;;4971342;28;20320;-50
2021/01/19 09:36:42;;;;;;;25.23;22.60;;;31.00;49.30;;;;;;4872222;28;20764;-51
2021/01/19 09:39:12;;;;;;;25.92;23.15;;;31.00;49.30;;;;;;4868458;29;20239;-51
2021/01/19 09:41:44;;;;;;;25.33;22.83;;;31.00;48.80;;;;;;4873728;28;20759;-50
2021/01/19 09:44:16;;;;;;;25.02;22.48;;;30.90;48.40;;;;;;4883979;28;20236;-54
2021/01/19 09:46:47;;;;;;;26.30;23.08;;;30.90;48.30;;;;;;4872149;28;20314;-51
2021/01/19 09:49:18;;;;;;;25.42;22.92;;;30.90;48.10;;;;;;4879487;28;20460;-55
2021/01/19 09:51:48;;;;;;;26.52;22.23;;;30.90;48.00;;;;;;4868823;28;20752;-55
2021/01/19 09:54:23;;;;;;;23.92;21.60;;;30.80;48.00;;;;;;4869335;28;20251;-50
2021/01/19 09:56:57;;;;;;;24.15;21.75;;;30.80;48.10;;;;;;4867151;28;20236;-55
2021/01/19 09:59:30;;;;;;;25.73;23.17;;;30.90;48.20;;;;;;4870186;28;20236;-49
2021/01/19 10:02:01;;;;;;;24.98;22.38;;;30.80;48.10;;;;;;4912456;28;20237;-55
2021/01/19 10:04:32;;;;;;;24.85;22.38;;;30.80;48.20;;;;;;4921170;28;20587;-51
2021/01/19 10:07:04;;;;;;;25.50;22.75;;;30.80;48.30;;;;;;4998254;28;20310;-52
2021/01/19 10:09:35;;;;;;;22.88;20.55;;;30.70;48.30;;;;;;4964702;28;20649;-49
2021/01/19 10:12:06;;;;;;;23.33;20.90;;;30.70;48.60;;;;;;4966812;28;20320;-49
2021/01/19 10:14:38;;;;;;;22.85;20.45;;;30.70;48.60;;;;;;4967804;28;20249;-51
2021/01/19 10:17:29;;;;;;;23.05;20.60;;;30.70;48.70;;;;;;4975408;28;20239;-50
2021/01/19 10:20:08;;;;;;;24.75;22.35;;;30.60;49.40;;;;;;4972008;28;20270;-51
2021/01/19 10:22:39;;;;;;;24.05;21.75;;;30.60;48.90;;;;;;4970770;28;20233;-49
2021/01/19 10:25:10;;;;;;;25.83;23.15;;;30.50;48.90;;;;;;4966039;28;20581;-52
2021/01/19 10:27:42;;;;;;;24.45;22.10;;;30.50;49.10;;;;;;4962884;28;20247;-52
2021/01/19 10:30:15;;;;;;;25.30;22.88;;;30.40;49.10;;;;;;4975337;28;20297;-50
2021/01/19 10:32:50;;;;;;;24.15;21.80;;;30.40;49.40;;;;;;4967921;28;20232;-49
2021/01/19 10:35:28;;;;;;;27.08;23.80;;;30.30;49.40;;;;;;4968236;28;20314;-50
2021/01/19 10:38:00;;;;;;;26.80;23.92;;;30.30;49.50;;;;;;4967120;28;20221;-49
2021/01/19 10:40:30;;;;;;;25.65;23.05;;;30.20;49.50;;;;;;4959724;28;20233;-51
2021/01/19 10:43:02;;;;;;;23.88;21.45;;;30.20;49.70;;;;;;4963411;28;20235;-50
2021/01/19 10:45:34;;;;;;;24.92;22.48;;;30.10;49.90;;;;;;4960509;28;20237;-53
2021/01/19 10:48:06;;;;;;;25.25;22.85;;;30.10;50.00;;;;;;4965355;28;20229;-51
2021/01/19 10:50:38;;;;;;;26.35;22.92;;;30.00;50.10;;;;;;4964077;28;20353;-49
2021/01/19 10:53:08;;;;;;;25.77;23.08;;;30.00;50.20;;;;;;4995677;28;20321;-54
2021/01/19 10:55:38;;;;;;;24.48;22.27;;;30.00;50.40;;;;;;4963635;28;20633;-52
2021/01/19 10:58:09;;;;;;;24.35;21.75;;;29.90;50.40;;;;;;4964655;28;20316;-50
2021/01/19 11:00:41;;;;;;;26.05;23.50;;;29.90;50.50;;;;;;4969191;28;20324;-54
2021/01/19 11:03:11;;;;;;;25.75;22.92;;;29.80;50.60;;;;;;4977744;28;20243;-51
2021/01/19 11:05:42;;;;;;;25.52;23.08;;;29.70;50.70;;;;;;4966313;28;20229;-50
2021/01/19 11:08:12;;;;;;;25.20;22.73;;;29.70;50.80;;;;;;4961657;28;20317;-49
2021/01/19 11:10:43;;;;;;;23.63;21.25;;;29.70;50.90;;;;;;4964158;28;20236;-49
2021/01/19 11:13:13;;;;;;;24.73;22.23;;;29.60;51.00;;;;;;4964046;28;20232;-49
2021/01/19 11:15:45;;;;;;;27.38;24.67;;;29.60;51.10;;;;;;4966701;28;20240;-49
2021/01/19 11:18:16;;;;;;;28.35;25.35;;;29.60;51.30;;;;;;4960818;28;20241;-49
2021/01/19 11:20:47;;;;;;;26.65;24.02;;;29.50;51.30;;;;;;4959580;28;20287;-51
2021/01/19 11:23:17;;;;;;;27.88;25.08;;;29.50;51.40;;;;;;4960097;28;20243;-52
2021/01/19 11:25:48;;;;;;;27.90;24.92;;;29.40;51.50;;;;;;4963542;28;20244;-50
2021/01/19 11:28:18;;;;;;;29.90;26.73;;;29.40;51.60;;;;;;4959546;28;20332;-51
2021/01/19 11:30:50;;;;;;;29.45;26.45;;;29.30;51.70;;;;;;4950616;28;20315;-53
2021/01/19 11:33:21;;;;;;;28.20;25.45;;;29.30;51.90;;;;;;4961058;28;20225;-54
2021/01/19 11:35:51;;;;;;;28.77;25.95;;;29.30;51.90;;;;;;4973840;28;20226;-51
2021/01/19 11:38:22;;;;;;;30.00;26.83;;;29.20;52.00;;;;;;4966627;28;20233;-51
2021/01/19 11:40:53;;;;;;;31.38;27.98;;;29.20;52.20;;;;;;4960564;28;20586;-51
2021/01/19 11:43:23;;;;;;;31.45;28.23;;;29.10;52.10;;;;;;4963548;28;20262;-53
2021/01/19 11:45:55;;;;;;;29.73;26.73;;;29.10;52.30;;;;;;4957653;28;20688;-53
2021/01/19 11:48:26;;;;;;;28.60;25.55;;;29.10;52.40;;;;;;4959942;28;20254;-51
2021/01/19 11:50:57;;;;;;;31.13;27.58;;;29.00;52.40;;;;;;4956419;28;20627;-53
2021/01/19 11:53:30;;;;;;;30.38;26.30;;;29.00;52.50;;;;;;4957111;28;20848;-52
2021/01/19 11:56:02;;;;;;;27.10;24.30;;;29.00;52.70;;;;;;4960725;28;20306;-50
2021/01/19 11:58:33;;;;;;;26.65;23.88;;;28.90;52.70;;;;;;4962788;28;20232;-54
2021/01/19 12:01:04;;;;;;;27.75;24.85;;;28.90;52.90;;;;;;4978637;28;20793;-51
2021/01/19 12:03:36;;;;;;;25.98;23.42;;;28.90;53.10;;;;;;4961858;28;20228;-52
2021/01/19 12:06:06;;;;;;;25.23;22.98;;;28.90;53.10;;;;;;4964236;28;20236;-51
2021/01/19 12:08:36;;;;;;;25.90;23.38;;;28.90;54.00;;;;;;4984621;28;20253;-51
2021/01/19 12:11:08;;;;;;;28.45;25.60;;;28.80;53.40;;;;;;4966098;28;20362;-53
2021/01/19 12:13:39;;;;;;;31.17;27.75;;;28.80;53.60;;;;;;4965429;28;20612;-53
2021/01/19 12:16:10;;;;;;;32.25;27.58;;;28.80;53.70;;;;;;4965786;28;20236;-53
2021/01/19 12:18:46;;;;;;;30.02;27.02;;;28.80;53.90;;;;;;4960963;28;20236;-53
2021/01/19 12:21:17;;;;;;;28.33;25.55;;;28.80;53.90;;;;;;4962492;28;20749;-53
2021/01/19 12:23:48;;;;;;;28.42;25.73;;;28.80;53.90;;;;;;4963434;28;20329;-53
2021/01/19 12:26:19;;;;;;;26.45;23.75;;;28.70;53.90;;;;;;4960966;28;20382;-54
2021/01/19 12:28:50;;;;;;;29.88;26.15;;;28.80;54.00;;;;;;4970424;28;20232;-52
2021/01/19 12:31:22;;;;;;;28.30;25.35;;;28.80;54.10;;;;;;4972593;28;20604;-49
2021/01/19 12:33:53;;;;;;;26.60;23.90;;;28.80;54.20;;;;;;4998241;28;20225;-51
2021/01/19 12:36:23;;;;;;;27.50;24.65;;;28.70;54.10;;;;;;4986219;28;20716;-51
2021/01/19 12:38:54;;;;;;;28.33;25.58;;;28.70;54.20;;;;;;4970796;28;20876;-53
2021/01/19 12:41:24;;;;;;;25.98;23.52;;;28.70;54.40;;;;;;4959482;28;20232;-52
2021/01/19 12:43:55;;;;;;;29.58;25.83;;;28.70;54.50;;;;;;4959078;28;20229;-54
2021/01/19 12:46:28;;;;;;;25.08;22.48;;;28.70;54.60;;;;;;4961599;28;20231;-52
2021/01/19 12:48:59;;;;;;;26.95;24.25;;;28.60;54.50;;;;;;4962524;28;20825;-53
2021/01/19 12:51:30;;;;;;;28.63;25.77;;;28.60;54.70;;;;;;4958618;28;20244;-52
2021/01/19 12:54:02;;;;;;;30.48;27.45;;;28.60;54.80;;;;;;4974933;28;20283;-53
2021/01/19 12:56:33;;;;;;;30.02;26.70;;;28.60;54.80;;;;;;4968440;28;20244;-49